Time;durP1;ratioP1;P1;durP2;ratioP2;P2;SDS_P1;SDS_P2;PMS_P1;PMS_P2;Temp;Humidity;BMP_temperature;BMP_pressure;BME280_temperature;BME280_humidity;BME280_pressure;Samples;Min_cycle;Max_cycle;Signal;HPM_P1;HPM_P2
2023/11/18 00:00:23;;;;;;;28.33;12.40;;;2.30;99.90;;;;;;5063252;28;20049;-66
2023/11/18 00:02:49;;;;;;;38.97;13.38;;;2.30;99.90;;;;;;5065935;28;20072;-66
2023/11/18 00:05:15;;;;;;;36.25;12.15;;;2.30;99.90;;;;;;5064416;28;20069;-66
2023/11/18 00:07:42;;;;;;;17.35;11.68;;;2.30;99.90;;;;;;5061189;28;20443;-66
2023/11/18 00:10:11;;;;;;;16.33;12.13;;;2.30;99.90;;;;;;5065802;28;20036;-66
2023/11/18 00:12:41;;;;;;;18.88;13.65;;;2.30;99.90;;;;;;5066941;28;20044;-66
2023/11/18 00:15:10;;;;;;;19.33;14.93;;;2.30;99.90;;;;;;5067344;28;20425;-66
2023/11/18 00:17:36;;;;;;;30.98;18.95;;;2.30;99.90;;;;;;5065578;28;20126;-66
2023/11/18 00:20:09;;;;;;;19.75;15.02;;;2.40;99.90;;;;;;5063254;28;20193;-66
2023/11/18 00:22:35;;;;;;;26.42;17.30;;;2.40;99.90;;;;;;5066386;28;20040;-66
2023/11/18 00:25:04;;;;;;;31.20;20.58;;;2.50;99.90;;;;;;5063725;28;20087;-66
2023/11/18 00:27:31;;;;;;;32.80;20.73;;;2.60;99.90;;;;;;5066645;28;20482;-66
2023/11/18 00:29:56;;;;;;;38.75;21.30;;;2.60;99.90;;;;;;5064938;28;20051;-66
2023/11/18 00:32:22;;;;;;;33.85;20.92;;;2.70;99.90;;;;;;5067262;28;20502;-66
2023/11/18 00:34:47;;;;;;;31.45;20.60;;;2.70;99.90;;;;;;5065231;28;20145;-66
2023/11/18 00:37:13;;;;;;;34.60;20.48;;;2.70;99.90;;;;;;5064505;28;20986;-66
2023/11/18 00:39:39;;;;;;;36.47;21.50;;;2.70;99.90;;;;;;5067362;28;20044;-66
2023/11/18 00:42:05;;;;;;;34.40;21.80;;;2.80;99.90;;;;;;5068524;28;20036;-66
2023/11/18 00:44:31;;;;;;;40.28;23.92;;;2.80;99.90;;;;;;5070860;28;20040;-66
2023/11/18 00:46:57;;;;;;;37.15;22.92;;;2.80;99.90;;;;;;5066537;28;20036;-66
2023/11/18 00:49:23;;;;;;;35.88;20.27;;;2.80;99.90;;;;;;5068970;28;20443;-66
2023/11/18 00:51:49;;;;;;;53.78;23.40;;;2.80;99.90;;;;;;5064457;28;20257;-66
2023/11/18 00:54:14;;;;;;;70.22;23.52;;;2.80;99.90;;;;;;5062632;28;20097;-66
2023/11/18 00:56:40;;;;;;;36.53;22.67;;;2.80;99.90;;;;;;5064682;28;20044;-66
2023/11/18 00:59:06;;;;;;;37.25;22.48;;;2.80;99.90;;;;;;5063418;28;20083;-66
2023/11/18 01:01:32;;;;;;;66.68;21.67;;;2.80;99.90;;;;;;5064471;28;20036;-66
2023/11/18 01:03:59;;;;;;;58.33;21.38;;;2.80;99.90;;;;;;5065494;28;20094;-66
2023/11/18 01:06:26;;;;;;;59.65;22.83;;;2.80;99.90;;;;;;5065701;28;20032;-66
2023/11/18 01:08:52;;;;;;;69.45;21.77;;;2.80;99.90;;;;;;5067907;28;20763;-66
2023/11/18 01:11:18;;;;;;;54.95;20.67;;;2.80;99.90;;;;;;5096227;28;20036;-66
2023/11/18 01:13:45;;;;;;;46.58;21.17;;;2.90;99.90;;;;;;5066762;28;20101;-66
2023/11/18 01:16:11;;;;;;;31.00;19.73;;;2.80;99.90;;;;;;5064821;28;20119;-66
2023/11/18 01:18:37;;;;;;;44.78;20.58;;;2.90;99.90;;;;;;5064737;28;20182;-66
2023/11/18 01:21:03;;;;;;;46.22;20.13;;;2.90;99.90;;;;;;5065701;28;20438;-66
2023/11/18 01:23:28;;;;;;;33.65;18.30;;;2.80;99.90;;;;;;5067352;28;20074;-66
2023/11/18 01:25:57;;;;;;;54.22;17.65;;;2.80;99.90;;;;;;5069335;28;20365;-66
2023/11/18 01:28:26;;;;;;;52.40;17.52;;;2.80;99.90;;;;;;5070338;28;20125;-66
2023/11/18 01:30:51;;;;;;;49.85;15.90;;;2.70;99.90;;;;;;5098277;28;21010;-66
2023/11/18 01:33:18;;;;;;;45.67;15.88;;;2.70;99.90;;;;;;5099049;28;20041;-66
2023/11/18 01:35:43;;;;;;;42.80;15.40;;;2.70;99.90;;;;;;5070340;28;20068;-66
2023/11/18 01:38:09;;;;;;;58.00;16.08;;;2.70;99.90;;;;;;5068542;28;20125;-66
2023/11/18 01:40:35;;;;;;;31.33;14.57;;;2.60;99.90;;;;;;5067680;28;20197;-66
2023/11/18 01:43:00;;;;;;;61.65;15.07;;;2.60;99.90;;;;;;5097946;28;20048;-66
2023/11/18 01:45:26;;;;;;;56.25;14.60;;;2.60;99.90;;;;;;5069842;28;20063;-66
2023/11/18 01:47:53;;;;;;;51.20;15.20;;;2.50;99.90;;;;;;5070047;28;20116;-66
2023/11/18 01:50:20;;;;;;;60.30;16.15;;;2.50;99.90;;;;;;5068939;28;20118;-66
2023/11/18 01:52:47;;;;;;;54.75;16.88;;;2.60;99.90;;;;;;5068741;28;20477;-66
2023/11/18 01:55:13;;;;;;;35.20;15.68;;;2.50;99.90;;;;;;5069197;28;20411;-66
2023/11/18 01:57:43;;;;;;;42.67;16.60;;;2.50;99.90;;;;;;5068736;28;20497;-66
2023/11/18 02:00:11;;;;;;;45.92;16.95;;;2.50;99.90;;;;;;5069588;28;20049;-66
2023/11/18 02:02:37;;;;;;;50.60;17.10;;;2.50;99.90;;;;;;5065527;28;20049;-66
2023/11/18 02:05:06;;;;;;;40.13;18.15;;;2.50;99.90;;;;;;5069291;28;20055;-66
2023/11/18 02:07:33;;;;;;;53.60;18.70;;;2.50;99.90;;;;;;5069320;28;20189;-66
2023/11/18 02:09:59;;;;;;;52.47;19.05;;;2.50;99.90;;;;;;5069563;28;20113;-66
2023/11/18 02:12:39;;;;;;;45.90;20.35;;;2.60;99.90;;;;;;5062994;28;20053;-66
2023/11/18 02:15:12;;;;;;;59.50;20.77;;;2.60;99.90;;;;;;5068172;28;20059;-66
2023/11/18 02:17:42;;;;;;;58.85;21.67;;;2.60;99.90;;;;;;5067753;28;20063;-66
2023/11/18 02:20:15;;;;;;;55.15;21.23;;;2.70;99.90;;;;;;5069307;28;20040;-66
2023/11/18 02:22:43;;;;;;;55.28;20.60;;;2.70;99.90;;;;;;5070605;28;20049;-66
2023/11/18 02:25:10;;;;;;;66.10;22.17;;;2.70;99.90;;;;;;5067624;28;20056;-66
2023/11/18 02:27:37;;;;;;;57.58;21.42;;;2.80;99.90;;;;;;5065967;28;20394;-66
2023/11/18 02:30:06;;;;;;;65.32;20.35;;;2.80;99.90;;;;;;5097047;27;20052;-66
2023/11/18 02:32:47;;;;;;;47.38;21.52;;;2.70;99.90;;;;;;5067436;28;20052;-66
2023/11/18 02:35:25;;;;;;;71.38;21.08;;;2.80;99.90;;;;;;5067949;28;20063;-66
2023/11/18 02:37:54;;;;;;;63.78;22.40;;;2.80;99.90;;;;;;5069848;28;20049;-66
2023/11/18 02:40:26;;;;;;;46.15;21.65;;;2.80;99.90;;;;;;5066430;28;20040;-66
2023/11/18 02:42:54;;;;;;;79.75;22.73;;;2.80;99.90;;;;;;5067272;28;20044;-66
2023/11/18 02:45:21;;;;;;;57.72;22.92;;;2.80;99.90;;;;;;5064992;28;20045;-66
2023/11/18 02:47:47;;;;;;;65.78;23.63;;;2.80;99.90;;;;;;5067109;28;20036;-66
2023/11/18 02:50:13;;;;;;;58.25;24.08;;;2.80;99.90;;;;;;5066662;28;20167;-66
2023/11/18 02:52:39;;;;;;;44.38;23.13;;;2.90;99.90;;;;;;5066579;28;20143;-66
2023/11/18 02:55:07;;;;;;;76.93;24.55;;;2.90;99.90;;;;;;5099827;27;20380;-66
2023/11/18 02:57:33;;;;;;;53.22;25.20;;;2.90;99.90;;;;;;5066293;28;20055;-66
2023/11/18 03:00:04;;;;;;;73.95;26.17;;;2.90;99.90;;;;;;5067252;28;20532;-66
2023/11/18 03:02:30;;;;;;;76.63;24.42;;;2.90;99.90;;;;;;5067439;28;20057;-66
2023/11/18 03:04:59;;;;;;;112.38;27.73;;;3.00;99.90;;;;;;5067041;28;20048;-66
2023/11/18 03:07:26;;;;;;;74.30;26.20;;;3.00;99.90;;;;;;5065666;28;20067;-66
2023/11/18 03:09:56;;;;;;;63.75;26.05;;;3.00;99.90;;;;;;5069878;28;20032;-66
2023/11/18 03:12:22;;;;;;;62.55;26.50;;;3.10;99.90;;;;;;5068013;28;20087;-66
2023/11/18 03:14:48;;;;;;;78.65;27.00;;;3.10;99.90;;;;;;5067930;28;20072;-66
2023/11/18 03:17:14;;;;;;;90.05;28.33;;;3.10;99.90;;;;;;5065841;28;20052;-66
2023/11/18 03:19:39;;;;;;;111.28;29.52;;;3.20;99.90;;;;;;5067626;28;20036;-66
2023/11/18 03:22:05;;;;;;;77.90;29.05;;;3.20;99.90;;;;;;5065473;28;20044;-66
2023/11/18 03:24:31;;;;;;;79.30;29.05;;;3.20;99.90;;;;;;5067843;28;20048;-67
2023/11/18 03:26:56;;;;;;;95.53;29.90;;;3.20;99.90;;;;;;5067872;28;20047;-67
2023/11/18 03:29:23;;;;;;;93.40;30.13;;;3.20;99.90;;;;;;5067019;28;20048;-67
2023/11/18 03:31:49;;;;;;;114.95;31.85;;;3.30;99.90;;;;;;5065015;28;20417;-67
2023/11/18 03:34:21;;;;;;;71.63;29.80;;;3.30;99.90;;;;;;5063294;28;20431;-67
2023/11/18 03:36:47;;;;;;;90.80;29.00;;;3.30;99.90;;;;;;5063829;28;20067;-67
2023/11/18 03:39:13;;;;;;;60.65;28.15;;;3.40;99.90;;;;;;5063938;28;20040;-67
2023/11/18 03:41:39;;;;;;;69.30;30.23;;;3.40;99.90;;;;;;5067852;28;20044;-67
2023/11/18 03:44:05;;;;;;;71.40;31.17;;;3.40;99.90;;;;;;5061939;28;20045;-67
2023/11/18 03:46:34;;;;;;;65.55;30.20;;;3.50;99.90;;;;;;5066370;28;20505;-67
2023/11/18 03:49:00;;;;;;;70.28;30.05;;;3.40;99.90;;;;;;5066066;28;20075;-67
2023/11/18 03:51:27;;;;;;;91.15;31.52;;;3.60;99.90;;;;;;5063875;28;20044;-67
2023/11/18 03:53:52;;;;;;;117.63;34.20;;;3.50;99.90;;;;;;5066101;28;20091;-67
2023/11/18 03:56:18;;;;;;;96.47;31.85;;;3.60;99.90;;;;;;5067043;28;20069;-67
2023/11/18 03:58:44;;;;;;;103.82;32.25;;;3.60;99.90;;;;;;5065638;28;20090;-67
2023/11/18 04:01:11;;;;;;;78.22;31.50;;;3.60;99.90;;;;;;5064360;28;20036;-67
2023/11/18 04:03:36;;;;;;;84.78;31.25;;;3.70;99.90;;;;;;5095448;28;20479;-67
2023/11/18 04:06:03;;;;;;;79.25;31.02;;;3.80;99.90;;;;;;5065226;28;20036;-67
2023/11/18 04:08:29;;;;;;;104.85;33.55;;;3.80;99.90;;;;;;5068041;28;20597;-67
2023/11/18 04:10:54;;;;;;;81.55;31.40;;;3.80;99.90;;;;;;5065144;28;20143;-67
2023/11/18 04:13:20;;;;;;;75.35;31.98;;;3.80;99.90;;;;;;5065960;28;20068;-67
2023/11/18 04:15:46;;;;;;;98.60;33.63;;;3.80;99.90;;;;;;5067441;28;20075;-67
2023/11/18 04:18:11;;;;;;;87.82;32.55;;;4.20;99.90;;;;;;5062879;28;20047;-67
2023/11/18 04:20:37;;;;;;;91.88;32.13;;;3.90;99.90;;;;;;5065044;28;20043;-67
2023/11/18 04:23:04;;;;;;;99.18;32.75;;;3.90;99.90;;;;;;5067392;28;20132;-67
2023/11/18 04:25:30;;;;;;;112.65;33.38;;;3.90;99.90;;;;;;5045811;28;20123;-67
2023/11/18 04:27:56;;;;;;;81.43;33.92;;;3.90;99.90;;;;;;5066196;28;20123;-67
2023/11/18 04:30:22;;;;;;;88.10;34.15;;;4.00;99.90;;;;;;5066955;28;20102;-67
2023/11/18 04:32:47;;;;;;;97.15;34.03;;;4.00;99.90;;;;;;5048389;28;20131;-67
2023/11/18 04:35:13;;;;;;;91.28;34.78;;;4.00;99.90;;;;;;5066155;28;20101;-67
2023/11/18 04:37:42;;;;;;;166.13;37.75;;;4.00;99.90;;;;;;5066364;28;20048;-67
2023/11/18 04:40:09;;;;;;;106.78;34.65;;;4.10;99.90;;;;;;5065997;28;20132;-67
2023/11/18 04:42:35;;;;;;;90.88;34.72;;;4.10;99.90;;;;;;5066580;28;20127;-67
2023/11/18 04:45:00;;;;;;;94.47;35.60;;;4.10;99.90;;;;;;5065384;28;20578;-67
2023/11/18 04:47:26;;;;;;;102.43;36.42;;;4.10;99.90;;;;;;5065753;28;20052;-67
2023/11/18 04:49:52;;;;;;;103.82;35.15;;;4.20;99.90;;;;;;5068328;28;20364;-67
2023/11/18 04:52:18;;;;;;;98.47;34.75;;;4.20;99.90;;;;;;5065807;28;20048;-67
2023/11/18 04:54:44;;;;;;;110.25;37.63;;;4.20;99.90;;;;;;5063122;28;20048;-67
2023/11/18 04:57:09;;;;;;;95.07;37.80;;;4.30;99.90;;;;;;5069897;28;20040;-67
2023/11/18 04:59:36;;;;;;;108.20;36.53;;;4.20;99.90;;;;;;5067263;28;20487;-67
2023/11/18 05:02:02;;;;;;;97.00;36.55;;;4.30;99.90;;;;;;5098203;28;20067;-67
2023/11/18 05:04:28;;;;;;;104.13;37.28;;;4.40;99.90;;;;;;5065454;28;20040;-67
2023/11/18 05:06:54;;;;;;;109.93;37.80;;;4.40;99.90;;;;;;5065098;28;20044;-67
2023/11/18 05:09:20;;;;;;;158.43;39.33;;;4.40;99.90;;;;;;5069579;28;20037;-67
2023/11/18 05:11:46;;;;;;;95.75;37.70;;;4.30;99.90;;;;;;5068177;28;20044;-67
2023/11/18 05:14:11;;;;;;;106.55;37.80;;;4.40;99.90;;;;;;5069125;28;20029;-67
2023/11/18 05:16:37;;;;;;;116.10;37.33;;;4.40;99.90;;;;;;5070532;28;20127;-67
2023/11/18 05:19:03;;;;;;;102.60;37.35;;;4.40;99.90;;;;;;5069783;28;20029;-67
2023/11/18 05:21:29;;;;;;;101.28;37.20;;;4.50;99.90;;;;;;5068902;28;20048;-67
2023/11/18 05:23:54;;;;;;;116.15;39.33;;;4.40;99.90;;;;;;5067116;28;20040;-67
2023/11/18 05:26:20;;;;;;;110.60;38.67;;;4.60;99.90;;;;;;5069640;28;20546;-67
2023/11/18 05:28:46;;;;;;;93.93;39.83;;;4.60;99.90;;;;;;5064784;28;20048;-67
2023/11/18 05:31:11;;;;;;;121.47;39.90;;;4.50;99.90;;;;;;5080983;28;20068;-67
2023/11/18 05:33:37;;;;;;;114.38;40.40;;;4.50;99.90;;;;;;5069048;28;20449;-67
2023/11/18 05:36:05;;;;;;;98.38;39.72;;;4.60;99.90;;;;;;5066863;28;20044;-67
2023/11/18 05:38:34;;;;;;;107.32;40.70;;;4.60;99.90;;;;;;5069325;28;20035;-67
2023/11/18 05:41:02;;;;;;;173.40;44.67;;;4.60;99.90;;;;;;5067162;28;20102;-67
2023/11/18 05:43:36;;;;;;;98.88;40.22;;;4.60;99.90;;;;;;5071340;28;20083;-67
2023/11/18 05:46:14;;;;;;;99.88;39.67;;;4.60;99.90;;;;;;5066935;28;20041;-67
2023/11/18 05:48:44;;;;;;;102.88;41.65;;;4.60;99.90;;;;;;5098519;28;20533;-67
2023/11/18 05:51:10;;;;;;;126.18;43.15;;;4.60;99.90;;;;;;5069754;28;20036;-67
2023/11/18 05:53:41;;;;;;;122.10;41.28;;;4.70;99.90;;;;;;5066306;28;20048;-67
2023/11/18 05:56:07;;;;;;;120.30;43.92;;;4.70;99.90;;;;;;5067795;28;20041;-67
2023/11/18 05:58:33;;;;;;;120.63;42.83;;;4.70;99.90;;;;;;5066894;28;20123;-67
2023/11/18 06:00:58;;;;;;;105.00;42.55;;;4.70;99.90;;;;;;5064709;28;20574;-67
2023/11/18 06:03:24;;;;;;;119.05;43.60;;;4.70;99.90;;;;;;5067007;28;20048;-67
2023/11/18 06:05:51;;;;;;;122.10;43.22;;;4.80;99.90;;;;;;5067843;28;20040;-67
2023/11/18 06:08:17;;;;;;;118.55;42.92;;;4.80;99.90;;;;;;5066467;28;20475;-67
2023/11/18 06:10:44;;;;;;;123.45;42.63;;;4.80;99.90;;;;;;5065572;28;20033;-67
2023/11/18 06:13:12;;;;;;;103.60;41.40;;;4.80;99.90;;;;;;5069412;28;20080;-67
2023/11/18 06:15:38;;;;;;;101.20;39.47;;;4.80;99.90;;;;;;5065218;28;20174;-67
2023/11/18 06:18:05;;;;;;;104.45;40.80;;;4.80;99.90;;;;;;5069659;28;20398;-67
2023/11/18 06:20:34;;;;;;;113.57;42.35;;;4.80;99.90;;;;;;5066562;28;20040;-67
2023/11/18 06:23:00;;;;;;;126.03;41.95;;;4.80;99.90;;;;;;5069217;28;20487;-67
2023/11/18 06:25:26;;;;;;;106.55;42.30;;;4.80;99.90;;;;;;5064224;28;20101;-67
2023/11/18 06:27:54;;;;;;;110.53;40.25;;;4.80;99.90;;;;;;5069163;28;20040;-67
2023/11/18 06:30:20;;;;;;;112.75;39.72;;;4.90;99.90;;;;;;5057938;28;20049;-67
2023/11/18 06:32:48;;;;;;;107.75;40.28;;;4.90;99.90;;;;;;5067866;28;20089;-67
2023/11/18 06:35:14;;;;;;;98.07;38.70;;;4.80;99.90;;;;;;5066717;28;20035;-67
2023/11/18 06:37:40;;;;;;;100.85;38.55;;;4.90;99.90;;;;;;5069551;28;20033;-67
2023/11/18 06:40:16;;;;;;;113.07;38.75;;;4.90;99.90;;;;;;5093946;28;20047;-67
2023/11/18 06:42:42;;;;;;;144.50;40.15;;;4.90;99.90;;;;;;5063338;28;20045;-67
2023/11/18 06:45:09;;;;;;;84.65;36.00;;;4.90;99.90;;;;;;5097402;28;20128;-67
2023/11/18 06:47:36;;;;;;;115.82;36.40;;;4.90;99.90;;;;;;5066603;28;20968;-68
2023/11/18 06:50:02;;;;;;;102.75;36.85;;;4.90;99.90;;;;;;5068960;28;20079;-67
2023/11/18 06:52:28;;;;;;;90.88;35.72;;;4.90;99.90;;;;;;5069421;28;20032;-67
2023/11/18 06:54:54;;;;;;;89.60;33.30;;;4.90;99.90;;;;;;5069244;28;20122;-67
2023/11/18 06:57:21;;;;;;;86.30;32.63;;;4.80;99.90;;;;;;5098857;28;20044;-67
2023/11/18 06:59:48;;;;;;;101.15;35.67;;;4.90;99.90;;;;;;5067444;28;20048;-67
2023/11/18 07:02:15;;;;;;;82.55;33.10;;;4.90;99.90;;;;;;5069196;28;20075;-68
2023/11/18 07:04:40;;;;;;;90.63;34.30;;;4.90;99.90;;;;;;5067782;28;20048;-67
2023/11/18 07:07:08;;;;;;;80.03;33.50;;;4.90;99.90;;;;;;5071080;28;20380;-67
2023/11/18 07:09:35;;;;;;;89.35;32.50;;;4.80;99.90;;;;;;5071511;28;20044;-67
2023/11/18 07:12:03;;;;;;;96.28;32.78;;;4.80;99.90;;;;;;5069183;28;20158;-67
2023/11/18 07:14:29;;;;;;;92.20;33.40;;;4.80;99.90;;;;;;5102078;27;20056;-67
2023/11/18 07:16:55;;;;;;;106.20;34.17;;;4.80;99.90;;;;;;5070196;28;20029;-67
2023/11/18 07:19:20;;;;;;;84.78;32.70;;;4.90;99.90;;;;;;5067840;28;20482;-67
2023/11/18 07:21:50;;;;;;;117.60;34.33;;;4.90;99.90;;;;;;5070170;28;20097;-67
2023/11/18 07:24:16;;;;;;;92.38;32.70;;;4.80;99.90;;;;;;5066313;28;20520;-67
2023/11/18 07:26:44;;;;;;;86.57;32.65;;;4.90;99.90;;;;;;5099914;27;20044;-67
2023/11/18 07:29:09;;;;;;;89.82;33.38;;;4.90;99.90;;;;;;5069219;28;20055;-67
2023/11/18 07:31:35;;;;;;;90.13;34.97;;;4.90;99.90;;;;;;5068754;28;20041;-68
2023/11/18 07:34:04;;;;;;;84.50;34.50;;;5.00;99.90;;;;;;5069535;28;20395;-67
2023/11/18 07:36:29;;;;;;;117.22;34.80;;;5.00;99.90;;;;;;5096082;28;20036;-67
2023/11/18 07:38:55;;;;;;;99.43;35.85;;;5.00;99.90;;;;;;5069426;28;20046;-67
2023/11/18 07:41:23;;;;;;;94.35;33.88;;;5.00;99.90;;;;;;5065818;28;20047;-67
2023/11/18 07:43:54;;;;;;;105.78;34.03;;;5.00;99.90;;;;;;5067780;28;20048;-67
2023/11/18 07:46:22;;;;;;;101.05;36.80;;;5.10;99.90;;;;;;5097259;27;20041;-67
2023/11/18 07:48:49;;;;;;;109.45;34.60;;;5.10;99.90;;;;;;5067835;28;20082;-67
2023/11/18 07:51:14;;;;;;;85.53;33.78;;;5.10;99.90;;;;;;5067443;28;20048;-67
2023/11/18 07:53:40;;;;;;;96.18;35.53;;;5.10;99.90;;;;;;5070598;28;20044;-67
2023/11/18 07:56:07;;;;;;;89.20;34.90;;;5.10;99.90;;;;;;5067385;28;20066;-67
2023/11/18 07:58:37;;;;;;;99.00;35.38;;;5.20;99.90;;;;;;5097359;28;20068;-67
2023/11/18 08:01:07;;;;;;;99.25;38.35;;;5.20;99.90;;;;;;5068193;28;20068;-67
2023/11/18 08:03:33;;;;;;;101.32;35.05;;;5.20;99.90;;;;;;5067842;28;20048;-67
2023/11/18 08:05:59;;;;;;;103.32;37.55;;;5.10;99.90;;;;;;5068184;28;20398;-67
2023/11/18 08:08:25;;;;;;;96.30;39.35;;;5.20;99.90;;;;;;5069518;28;20035;-67
2023/11/18 08:10:51;;;;;;;106.82;38.53;;;5.10;99.90;;;;;;5068701;28;20050;-67
2023/11/18 08:13:16;;;;;;;114.65;40.22;;;5.10;99.90;;;;;;5067716;28;20036;-68
2023/11/18 08:15:46;;;;;;;107.80;39.28;;;5.20;99.90;;;;;;5066403;28;20186;-67
2023/11/18 08:18:11;;;;;;;101.78;39.33;;;5.20;99.90;;;;;;5068107;28;20398;-67
2023/11/18 08:20:37;;;;;;;108.45;40.15;;;5.20;99.90;;;;;;5068137;28;20036;-67
2023/11/18 08:23:06;;;;;;;106.93;39.63;;;5.20;99.90;;;;;;5067159;28;20060;-67
2023/11/18 08:25:33;;;;;;;107.03;40.85;;;5.30;99.90;;;;;;5068881;28;20407;-67
2023/11/18 08:28:00;;;;;;;92.30;38.58;;;5.30;99.90;;;;;;5068736;28;20052;-67
2023/11/18 08:30:26;;;;;;;104.65;37.78;;;5.30;99.90;;;;;;5064682;28;20089;-67
2023/11/18 08:32:52;;;;;;;114.20;39.28;;;5.20;99.90;;;;;;5099678;28;20036;-67
2023/11/18 08:35:18;;;;;;;116.68;38.38;;;5.30;99.90;;;;;;5066780;28;20037;-67
2023/11/18 08:37:45;;;;;;;101.05;39.78;;;5.30;99.90;;;;;;5069369;28;20068;-67
2023/11/18 08:40:14;;;;;;;99.97;38.33;;;5.30;99.90;;;;;;5068051;28;20562;-67
2023/11/18 08:42:49;;;;;;;105.93;38.88;;;5.40;99.90;;;;;;5068725;28;20040;-67
2023/11/18 08:45:27;;;;;;;109.60;38.47;;;5.40;99.90;;;;;;5068324;28;20135;-67
2023/11/18 08:47:53;;;;;;;91.97;38.55;;;5.40;99.90;;;;;;5069149;28;20044;-67
2023/11/18 08:50:18;;;;;;;111.22;38.25;;;5.40;99.90;;;;;;5066829;28;20039;-67
2023/11/18 08:52:47;;;;;;;119.30;39.42;;;5.50;99.90;;;;;;5064452;28;20048;-67
2023/11/18 08:57:52;;;;;;;123.03;40.67;;;5.50;99.90;;;;;;5100738;28;20044;-67
2023/11/18 09:03:05;;;;;;;104.05;40.90;;;5.40;99.90;;;;;;5067748;28;20052;-67
2023/11/18 09:05:32;;;;;;;102.65;39.50;;;5.50;99.90;;;;;;5067592;28;20051;-67
2023/11/18 09:08:00;;;;;;;102.90;40.17;;;5.50;99.90;;;;;;5067525;28;21387;-67
2023/11/18 09:10:28;;;;;;;99.50;38.92;;;5.50;99.90;;;;;;5067604;28;20046;-67
2023/11/18 09:12:54;;;;;;;101.03;40.53;;;5.50;99.90;;;;;;5066812;28;20067;-67
2023/11/18 09:15:22;;;;;;;101.80;41.50;;;5.50;99.90;;;;;;5067984;28;20032;-67
2023/11/18 09:17:52;;;;;;;104.15;41.75;;;5.50;99.90;;;;;;5079983;28;20048;-67
2023/11/18 09:20:22;;;;;;;95.75;40.88;;;5.50;99.90;;;;;;5063841;28;20041;-67
2023/11/18 09:22:48;;;;;;;99.53;41.97;;;5.50;99.90;;;;;;5068135;28;20048;-67
2023/11/18 09:25:15;;;;;;;94.88;40.80;;;5.50;99.90;;;;;;5068798;28;20036;-67
2023/11/18 09:27:42;;;;;;;92.80;41.55;;;5.50;99.90;;;;;;5068468;28;20036;-67
2023/11/18 09:30:13;;;;;;;89.43;40.92;;;5.50;99.90;;;;;;5067823;28;20033;-67
2023/11/18 09:32:42;;;;;;;95.68;41.25;;;5.50;99.90;;;;;;5068515;28;20101;-67
2023/11/18 09:35:12;;;;;;;97.68;41.40;;;5.60;99.90;;;;;;5066837;28;20521;-67
2023/11/18 09:37:40;;;;;;;101.82;40.42;;;5.60;99.90;;;;;;5100590;28;20127;-67
2023/11/18 09:40:13;;;;;;;92.20;43.17;;;5.60;99.90;;;;;;5066285;28;20045;-67
2023/11/18 09:42:39;;;;;;;95.70;42.28;;;5.60;99.90;;;;;;5072376;28;20508;-67
2023/11/18 09:45:06;;;;;;;88.97;42.05;;;5.60;99.90;;;;;;5101787;28;20068;-67
2023/11/18 09:47:47;;;;;;;93.65;44.25;;;5.70;99.90;;;;;;5070683;28;20051;-67
2023/11/18 09:50:16;;;;;;;86.78;42.40;;;5.70;99.90;;;;;;5068866;28;20033;-67
2023/11/18 09:52:51;;;;;;;86.47;40.80;;;5.70;99.90;;;;;;5070632;28;20080;-67
2023/11/18 09:55:31;;;;;;;91.03;42.87;;;5.70;99.90;;;;;;5067330;28;20044;-67
2023/11/18 09:58:04;;;;;;;87.05;42.15;;;5.70;99.90;;;;;;5102751;27;20173;-67
2023/11/18 10:00:34;;;;;;;85.25;42.47;;;5.70;99.90;;;;;;5101108;28;20049;-67
2023/11/18 10:03:03;;;;;;;82.72;42.75;;;5.80;99.90;;;;;;5069260;28;20079;-67
2023/11/18 10:05:30;;;;;;;78.47;42.55;;;5.70;99.90;;;;;;5069285;28;20078;-67
2023/11/18 10:07:58;;;;;;;83.75;42.63;;;5.80;99.90;;;;;;5069863;28;20489;-67
2023/11/18 10:10:26;;;;;;;79.22;42.67;;;5.80;99.90;;;;;;5069086;28;20036;-67
2023/11/18 10:12:52;;;;;;;77.55;41.85;;;5.80;99.90;;;;;;5071451;28;20047;-67
2023/11/18 10:15:23;;;;;;;73.38;41.58;;;5.80;99.90;;;;;;5067498;28;20118;-67
2023/11/18 10:20:41;;;;;;;70.55;40.30;;;5.80;99.90;;;;;;5069862;28;20383;-67
2023/11/18 10:23:11;;;;;;;68.75;41.20;;;5.80;99.90;;;;;;5069791;28;20103;-67
2023/11/18 10:25:56;;;;;;;71.70;39.60;;;5.70;99.90;;;;;;5066351;28;20128;-67
2023/11/18 10:28:27;;;;;;;65.10;38.30;;;5.80;99.90;;;;;;5102365;28;20403;-67
2023/11/18 10:31:03;;;;;;;61.88;37.42;;;5.70;99.90;;;;;;5100352;27;20048;-67
2023/11/18 10:33:32;;;;;;;58.97;35.97;;;5.70;99.90;;;;;;5071025;28;20044;-67
2023/11/18 10:36:03;;;;;;;51.95;33.78;;;5.70;99.90;;;;;;5068564;28;20049;-67
2023/11/18 10:38:39;;;;;;;57.50;33.75;;;5.80;99.90;;;;;;5068680;28;20522;-67
2023/11/18 10:41:05;;;;;;;49.00;31.95;;;5.80;99.90;;;;;;5101475;27;20620;-67
2023/11/18 10:43:35;;;;;;;50.75;30.92;;;5.80;99.90;;;;;;5071333;28;20395;-67
2023/11/18 10:46:13;;;;;;;46.33;30.52;;;5.90;99.90;;;;;;5068506;28;20043;-67
2023/11/18 10:48:50;;;;;;;49.22;31.10;;;5.80;99.90;;;;;;5071612;28;20153;-67
2023/11/18 10:51:23;;;;;;;45.67;29.80;;;5.80;99.90;;;;;;5099516;27;20060;-67
2023/11/18 10:54:17;;;;;;;44.00;27.52;;;5.80;99.90;;;;;;5069921;28;20051;-67
2023/11/18 10:56:47;;;;;;;44.80;27.45;;;5.80;99.90;;;;;;5068852;28;20048;-67
2023/11/18 10:59:18;;;;;;;40.60;26.13;;;5.80;99.90;;;;;;5068804;28;20059;-67
2023/11/18 11:01:45;;;;;;;45.70;26.50;;;5.80;99.90;;;;;;5069213;28;20040;-67
2023/11/18 11:04:11;;;;;;;41.95;25.17;;;5.80;99.90;;;;;;5069670;28;20037;-67
2023/11/18 11:06:52;;;;;;;43.95;26.52;;;5.80;99.90;;;;;;5068381;28;20041;-67
2023/11/18 11:09:27;;;;;;;42.90;24.73;;;5.80;99.90;;;;;;5067282;28;20077;-67
2023/11/18 11:12:04;;;;;;;37.22;23.30;;;5.80;99.90;;;;;;5068701;28;20048;-67
2023/11/18 11:14:46;;;;;;;38.75;25.73;;;5.80;99.90;;;;;;5099454;27;20041;-67
2023/11/18 11:17:26;;;;;;;39.28;24.65;;;5.70;99.90;;;;;;5068019;28;20041;-67
2023/11/18 11:20:42;;;;;;;40.20;24.15;;;5.70;99.90;;;;;;5066945;28;20085;-67
2023/11/18 11:23:35;;;;;;;38.85;23.75;;;5.70;99.90;;;;;;5065906;28;20056;-67
2023/11/18 11:26:13;;;;;;;34.25;22.25;;;5.70;99.90;;;;;;5067858;28;20055;-67
2023/11/18 11:29:13;;;;;;;37.10;23.00;;;5.70;99.90;;;;;;5066278;28;20043;-67
2023/11/18 11:31:40;;;;;;;32.75;21.88;;;5.70;99.90;;;;;;5068171;28;20052;-67
2023/11/18 11:34:20;;;;;;;33.67;21.45;;;5.70;99.90;;;;;;5067851;28;20641;-67
2023/11/18 11:36:51;;;;;;;28.63;20.40;;;5.70;99.90;;;;;;5067818;28;20040;-67
2023/11/18 11:39:22;;;;;;;34.47;22.90;;;5.70;99.90;;;;;;5099430;27;20182;-67
2023/11/18 11:41:51;;;;;;;36.80;21.88;;;5.80;99.90;;;;;;5066370;28;20041;-67
2023/11/18 11:44:20;;;;;;;31.60;19.23;;;5.70;99.90;;;;;;5101372;28;20470;-67
2023/11/18 11:46:52;;;;;;;34.50;20.42;;;5.70;99.90;;;;;;5068044;28;20478;-67
2023/11/18 11:49:20;;;;;;;32.35;21.30;;;5.70;99.90;;;;;;5066315;28;20467;-68
2023/11/18 11:52:17;;;;;;;27.42;20.58;;;5.70;99.90;;;;;;5069341;28;20036;-68
2023/11/18 11:54:49;;;;;;;29.02;20.60;;;5.70;99.90;;;;;;5066866;28;20127;-68
2023/11/18 11:57:15;;;;;;;28.20;19.40;;;5.80;99.90;;;;;;5069086;28;20661;-67
2023/11/18 11:59:44;;;;;;;31.80;20.05;;;5.70;99.90;;;;;;5065628;28;20128;-68
2023/11/18 12:02:16;;;;;;;28.42;20.05;;;5.80;99.90;;;;;;5067517;28;20048;-68
2023/11/18 12:04:45;;;;;;;26.23;18.35;;;5.70;99.90;;;;;;5098147;28;20063;-68
2023/11/18 12:07:14;;;;;;;28.27;18.30;;;5.70;99.90;;;;;;5069287;28;20371;-68
2023/11/18 12:09:43;;;;;;;29.08;19.05;;;5.80;99.90;;;;;;5066192;28;20082;-68
2023/11/18 12:12:26;;;;;;;29.73;19.02;;;5.70;99.90;;;;;;5068721;28;20128;-68
2023/11/18 12:14:56;;;;;;;27.10;17.98;;;5.80;99.90;;;;;;5098626;28;20134;-68
2023/11/18 12:17:22;;;;;;;30.10;18.02;;;5.90;99.90;;;;;;5068558;28;20044;-68
2023/11/18 12:19:49;;;;;;;31.83;18.83;;;6.10;99.90;;;;;;5062227;28;20407;-68
2023/11/18 12:22:26;;;;;;;29.85;19.67;;;5.80;99.90;;;;;;5068351;28;20384;-68
2023/11/18 12:24:58;;;;;;;28.27;17.50;;;5.90;99.90;;;;;;5066397;28;20048;-68
2023/11/18 12:27:46;;;;;;;31.73;19.52;;;5.90;99.90;;;;;;5066210;28;20043;-68
2023/11/18 12:30:15;;;;;;;28.10;18.05;;;5.90;99.90;;;;;;5066168;28;20712;-68
2023/11/18 12:33:08;;;;;;;30.10;17.48;;;5.90;99.90;;;;;;5067761;28;20032;-68
2023/11/18 12:36:17;;;;;;;27.70;17.48;;;5.90;99.90;;;;;;5067978;28;20075;-67
2023/11/18 12:38:46;;;;;;;29.35;17.55;;;5.90;99.90;;;;;;5098133;28;20040;-67
2023/11/18 12:41:39;;;;;;;30.17;18.80;;;5.90;99.90;;;;;;5066586;28;20517;-67
2023/11/18 12:44:31;;;;;;;31.95;17.95;;;5.90;99.90;;;;;;5068844;28;20044;-68
2023/11/18 12:47:14;;;;;;;29.52;18.33;;;5.80;99.90;;;;;;5065351;28;20055;-68
2023/11/18 12:49:42;;;;;;;26.17;16.55;;;5.80;99.90;;;;;;5065658;28;20165;-68